createdAt,value
2023-03-18T00:00:09.645Z,53.61
2023-03-18T00:02:39.843Z,53.79
2023-03-18T00:05:10.743Z,54.27
2023-03-18T00:07:41.109Z,53.41
2023-03-18T00:10:17.673Z,54.21
2023-03-18T00:12:47.001Z,54.61
2023-03-18T00:15:17.916Z,54.88
2023-03-18T00:17:48.062Z,54.37
2023-03-18T00:23:19.376Z,54.83
2023-03-18T00:25:50.808Z,54.44
2023-03-18T00:28:19.962Z,54.51
2023-03-18T00:30:49.170Z,54.71
2023-03-18T00:33:19.573Z,55.87
2023-03-18T00:35:50.220Z,55.41
2023-03-18T00:38:22.364Z,54.99
2023-03-18T00:41:02.081Z,54.80
2023-03-18T00:43:45.541Z,54.89
2023-03-18T00:46:15.909Z,54.94
2023-03-18T00:48:56.153Z,55.50
2023-03-18T00:51:33.780Z,55.36
2023-03-18T00:54:06.222Z,55.73
2023-03-18T00:56:39.172Z,56.23
2023-03-18T00:59:09.334Z,56.94
2023-03-18T01:01:48.765Z,57.06
2023-03-18T01:04:23.961Z,57.02
2023-03-18T01:06:53.129Z,57.04
2023-03-18T01:09:23.053Z,56.54
2023-03-18T01:11:59.487Z,56.51
2023-03-18T01:14:34.286Z,56.29
2023-03-18T01:17:03.948Z,56.39
2023-03-18T01:19:38.813Z,57.56
2023-03-18T01:22:08.328Z,56.68
2023-03-18T01:24:44.618Z,56.30
2023-03-18T01:27:16.251Z,56.70
2023-03-18T01:29:48.382Z,56.74
2023-03-18T01:32:28.840Z,56.79
2023-03-18T01:34:59.386Z,56.88
2023-03-18T01:37:34.099Z,56.44
2023-03-18T01:40:23.244Z,56.70
2023-03-18T01:42:59.490Z,57.53
2023-03-18T01:45:33.920Z,56.83
2023-03-18T01:48:04.423Z,57.41
2023-03-18T01:50:40.031Z,57.34
2023-03-18T01:53:13.708Z,57.75
2023-03-18T01:55:43.890Z,57.11
2023-03-18T01:58:19.873Z,57.04
2023-03-18T02:00:55.861Z,58.12
2023-03-18T02:03:31.604Z,57.29
2023-03-18T02:06:01.114Z,57.81
2023-03-18T02:08:35.848Z,58.29
2023-03-18T02:11:06.102Z,58.24
2023-03-18T02:13:42.120Z,58.46
2023-03-18T02:16:17.168Z,58.44
2023-03-18T02:18:58.880Z,58.17
2023-03-18T02:21:42.600Z,58.61
2023-03-18T02:24:27.414Z,58.90
2023-03-18T02:27:04.171Z,58.97
2023-03-18T02:29:45.306Z,59.92
2023-03-18T02:32:19.909Z,59.65
2023-03-18T02:34:55.121Z,59.96
2023-03-18T02:37:25.009Z,59.71
2023-03-18T02:39:54.360Z,59.64
2023-03-18T02:42:31.200Z,60.52
2023-03-18T02:45:04.674Z,60.79
2023-03-18T02:47:55.868Z,61.38
2023-03-18T02:50:25.212Z,61.21
2023-03-18T02:52:54.348Z,61.44
2023-03-18T02:55:29.837Z,61.53
2023-03-18T02:57:58.989Z,61.16
2023-03-18T03:00:35.323Z,61.85
2023-03-18T03:03:05.470Z,61.40
2023-03-18T03:05:37.748Z,61.34
2023-03-18T03:08:07.717Z,61.51
2023-03-18T03:10:41.395Z,62.25
2023-03-18T03:13:11.523Z,62.20
2023-03-18T03:15:45.205Z,62.30
2023-03-18T03:18:20.378Z,61.53
2023-03-18T03:20:49.712Z,62.06
2023-03-18T03:23:19.340Z,63.37
2023-03-18T03:25:56.084Z,63.32
2023-03-18T03:28:25.344Z,62.53
2023-03-18T03:30:58.123Z,62.83
2023-03-18T03:33:27.174Z,63.19
2023-03-18T03:36:06.328Z,63.36
2023-03-18T03:38:36.489Z,63.69
2023-03-18T03:41:05.987Z,64.08
2023-03-18T03:43:35.704Z,63.35
2023-03-18T03:46:07.890Z,64.00
2023-03-18T03:48:39.079Z,64.40
2023-03-18T03:51:12.896Z,64.24
2023-03-18T03:53:47.690Z,64.30
2023-03-18T03:56:17.799Z,64.64
2023-03-18T03:58:47.178Z,64.27
2023-03-18T04:04:11.547Z,64.65
2023-03-18T04:06:40.992Z,64.81
2023-03-18T04:09:10.597Z,64.37
2023-03-18T04:11:44.909Z,65.56
2023-03-18T04:14:20.007Z,66.11
2023-03-18T04:16:51.338Z,66.48
2023-03-18T04:19:20.658Z,66.54
2023-03-18T04:21:49.794Z,66.06
2023-03-18T04:24:19.787Z,66.36
2023-03-18T04:26:49.585Z,65.74
2023-03-18T04:29:18.751Z,66.36
2023-03-18T04:34:26.055Z,66.17
2023-03-18T04:36:55.336Z,65.40
2023-03-18T04:42:02.163Z,65.21
2023-03-18T04:44:31.870Z,65.08
2023-03-18T04:47:02.264Z,64.71
2023-03-18T04:49:42.324Z,64.52
2023-03-18T04:52:12.159Z,64.50
2023-03-18T04:54:42.333Z,64.17
2023-03-18T04:57:18.544Z,63.93
2023-03-18T04:59:53.846Z,63.85
2023-03-18T05:02:23.131Z,63.37
2023-03-18T05:04:54.327Z,63.82
2023-03-18T05:07:23.916Z,63.14
2023-03-18T05:10:01.340Z,62.78
2023-03-18T05:12:32.693Z,63.04
2023-03-18T05:15:01.924Z,62.72
2023-03-18T05:17:33.076Z,62.72
2023-03-18T05:20:11.033Z,62.50
2023-03-18T05:22:45.486Z,62.49
2023-03-18T05:25:35.051Z,62.14
2023-03-18T05:28:04.974Z,62.35
2023-03-18T05:30:44.087Z,62.09
2023-03-18T05:36:06.030Z,61.36
2023-03-18T05:38:40.725Z,61.83
2023-03-18T05:41:10.297Z,61.55
2023-03-18T05:49:13.477Z,61.30
2023-03-18T05:51:57.662Z,61.63
2023-03-18T05:54:37.760Z,61.04
2023-03-18T05:57:07.019Z,61.00
2023-03-18T05:59:36.415Z,60.82
2023-03-18T06:02:12.499Z,60.72
2023-03-18T06:04:47.297Z,59.97
2023-03-18T06:07:29.354Z,59.80
2023-03-18T06:09:58.266Z,59.68
2023-03-18T06:12:28.128Z,59.71
2023-03-18T06:14:59.212Z,59.66
2023-03-18T06:17:28.912Z,59.61
2023-03-18T06:19:58.721Z,59.13
2023-03-18T06:22:40.694Z,58.68
2023-03-18T06:25:12.523Z,59.06
2023-03-18T06:27:42.197Z,58.19
2023-03-18T06:30:12.936Z,57.87
2023-03-18T06:32:43.202Z,57.75
2023-03-18T06:35:13.444Z,57.37
2023-03-18T06:37:43.326Z,56.55
2023-03-18T06:40:15.281Z,56.18
2023-03-18T06:42:45.236Z,55.32
2023-03-18T06:45:21.954Z,54.94
2023-03-18T06:48:02.822Z,55.37
2023-03-18T06:50:35.456Z,55.63
2023-03-18T06:53:14.312Z,56.08
2023-03-18T06:55:53.559Z,55.13
2023-03-18T06:58:26.768Z,55.09
2023-03-18T07:01:04.088Z,54.76
2023-03-18T07:03:43.383Z,54.04
2023-03-18T07:06:14.895Z,54.54
2023-03-18T07:08:45.778Z,54.42
2023-03-18T07:11:17.170Z,54.44
2023-03-18T07:13:47.642Z,54.22
2023-03-18T07:16:27.174Z,54.08
2023-03-18T07:18:57.930Z,53.19
2023-03-18T07:21:27.377Z,53.75
2023-03-18T07:24:03.230Z,53.15
2023-03-18T07:26:34.334Z,52.90
2023-03-18T07:29:09.119Z,52.55
2023-03-18T07:31:38.596Z,53.20
2023-03-18T07:34:08.974Z,52.45
2023-03-18T07:36:38.903Z,50.63
2023-03-18T07:39:14.403Z,49.93
2023-03-18T07:41:51.076Z,49.91
2023-03-18T07:44:26.993Z,50.63
2023-03-18T07:47:01.251Z,50.79
2023-03-18T07:49:41.150Z,50.66
2023-03-18T07:52:11.001Z,50.56
2023-03-18T07:54:41.210Z,49.77
2023-03-18T07:57:12.553Z,49.75
2023-03-18T07:59:41.840Z,48.83
2023-03-18T08:02:15.495Z,48.79
2023-03-18T08:04:46.280Z,49.04
2023-03-18T08:07:20.551Z,48.48
2023-03-18T08:09:50.148Z,48.01
2023-03-18T08:12:22.063Z,47.29
2023-03-18T08:14:52.102Z,46.38
2023-03-18T08:17:21.174Z,46.69
2023-03-18T08:19:50.645Z,47.25
2023-03-18T08:22:20.156Z,45.61
2023-03-18T08:24:57.705Z,44.79
2023-03-18T08:27:28.964Z,44.45
2023-03-18T08:30:04.218Z,43.71
2023-03-18T08:32:33.976Z,42.87
2023-03-18T08:37:40.225Z,41.80
2023-03-18T08:40:11.353Z,42.37
2023-03-18T08:42:44.873Z,41.70
2023-03-18T08:45:15.124Z,41.55
2023-03-18T08:47:44.334Z,41.65
2023-03-18T08:50:15.131Z,40.99
2023-03-18T08:52:44.476Z,39.92
2023-03-18T08:55:13.689Z,38.89
2023-03-18T08:57:44.866Z,38.17
2023-03-18T09:00:15.559Z,38.56
2023-03-18T09:02:45.026Z,36.28
2023-03-18T09:05:14.302Z,35.23
2023-03-18T09:07:43.452Z,36.19
2023-03-18T09:10:18.044Z,34.93
2023-03-18T09:12:50.202Z,34.57
2023-03-18T09:15:27.210Z,34.02
2023-03-18T09:18:10.424Z,34.66
2023-03-18T09:20:52.031Z,33.88
2023-03-18T09:23:22.120Z,33.65
2023-03-18T09:25:54.366Z,34.02
2023-03-18T09:28:25.999Z,34.00
2023-03-18T09:30:55.640Z,33.14
2023-03-18T09:33:26.317Z,33.47
2023-03-18T09:36:00.948Z,32.76
2023-03-18T09:38:31.185Z,32.87
2023-03-18T09:41:16.297Z,33.41
2023-03-18T09:44:03.034Z,32.71
2023-03-18T09:46:45.519Z,33.26
2023-03-18T09:49:38.628Z,33.24
2023-03-18T09:52:21.989Z,33.23
2023-03-18T09:55:04.447Z,32.61
2023-03-18T09:57:37.387Z,33.13
2023-03-18T10:00:20.717Z,33.06
2023-03-18T10:02:54.067Z,33.52
2023-03-18T10:05:30.403Z,32.81
2023-03-18T10:08:09.409Z,33.06
2023-03-18T10:10:42.454Z,33.71
2023-03-18T10:13:18.639Z,33.11
2023-03-18T10:15:59.544Z,33.61
2023-03-18T10:18:33.313Z,33.91
2023-03-18T10:21:20.005Z,33.27
2023-03-18T10:24:07.146Z,33.97
2023-03-18T10:26:47.345Z,34.62
2023-03-18T10:29:28.694Z,34.63
2023-03-18T10:32:09.990Z,34.07
2023-03-18T10:35:01.608Z,34.19
2023-03-18T10:37:45.364Z,32.47
2023-03-18T10:40:17.682Z,33.00
2023-03-18T10:42:48.324Z,32.51
2023-03-18T10:45:25.399Z,32.82
2023-03-18T10:48:05.999Z,32.70
2023-03-18T10:50:37.907Z,32.66
2023-03-18T10:53:17.469Z,32.09
2023-03-18T10:55:57.486Z,32.98
2023-03-18T10:58:31.919Z,32.42
2023-03-18T11:01:01.519Z,32.43
2023-03-18T11:03:37.076Z,32.13
2023-03-18T11:06:19.680Z,31.60
2023-03-18T11:08:52.833Z,30.81
2023-03-18T11:11:27.604Z,30.99
2023-03-18T11:13:59.449Z,31.28
2023-03-18T11:16:31.438Z,30.66
2023-03-18T11:19:10.320Z,29.85
2023-03-18T11:21:39.747Z,28.92
2023-03-18T11:24:36.714Z,30.07
2023-03-18T11:27:08.589Z,30.18
2023-03-18T11:29:46.570Z,30.04
2023-03-18T11:32:27.666Z,30.17
2023-03-18T11:35:20.337Z,30.10
2023-03-18T11:37:54.822Z,30.32
2023-03-18T11:40:30.870Z,29.30
2023-03-18T11:43:07.316Z,29.67
2023-03-18T11:45:48.765Z,29.25
2023-03-18T11:48:21.736Z,29.11
2023-03-18T11:51:08.885Z,30.00
2023-03-18T11:53:52.974Z,30.03
2023-03-18T11:56:29.328Z,29.36
2023-03-18T11:59:33.844Z,29.60
2023-03-18T12:02:32.681Z,28.87
2023-03-18T12:05:37.140Z,28.28
2023-03-18T12:08:17.650Z,27.12
2023-03-18T12:11:05.615Z,28.12
2023-03-18T12:13:51.120Z,27.69
2023-03-18T12:16:30.225Z,28.37
2023-03-18T12:19:13.240Z,28.77
2023-03-18T12:22:21.131Z,28.84
2023-03-18T12:25:18.572Z,27.98
2023-03-18T12:27:58.151Z,29.14
2023-03-18T12:30:48.652Z,27.86
2023-03-18T12:33:40.638Z,27.08
2023-03-18T12:36:22.395Z,27.71
2023-03-18T12:39:27.228Z,27.15
2023-03-18T12:42:05.277Z,27.75
2023-03-18T12:44:49.527Z,26.20
2023-03-18T12:52:50.568Z,26.88
2023-03-18T12:55:29.519Z,26.56
2023-03-18T12:58:08.377Z,27.41
2023-03-18T13:00:48.934Z,26.91
2023-03-18T13:03:34.974Z,25.54
2023-03-18T13:06:14.136Z,25.18
2023-03-18T13:09:15.234Z,26.52
2023-03-18T13:12:03.687Z,26.67
2023-03-18T13:14:45.161Z,25.99
2023-03-18T13:17:18.616Z,25.61
2023-03-18T13:22:47.979Z,25.03
2023-03-18T13:25:28.566Z,25.11
2023-03-18T13:28:20.107Z,25.99
2023-03-18T13:31:03.017Z,24.56
2023-03-18T13:34:05.655Z,24.85
2023-03-18T13:37:10.239Z,24.90
2023-03-18T13:40:19.683Z,25.16
2023-03-18T13:42:52.444Z,25.56
2023-03-18T13:45:35.285Z,25.71
2023-03-18T13:48:15.985Z,25.68
2023-03-18T13:50:47.903Z,26.65
2023-03-18T13:53:24.182Z,25.80
2023-03-18T13:56:11.659Z,26.05
2023-03-18T13:58:51.902Z,25.55
2023-03-18T14:01:55.552Z,23.49
2023-03-18T14:04:33.047Z,24.41
2023-03-18T14:07:17.318Z,24.92
2023-03-18T14:10:08.335Z,24.55
2023-03-18T14:12:50.286Z,25.42
2023-03-18T14:15:43.987Z,26.32
2023-03-18T14:18:27.844Z,25.98
2023-03-18T14:21:04.667Z,26.53
2023-03-18T14:23:40.915Z,26.56
2023-03-18T14:26:23.489Z,26.26
2023-03-18T14:28:58.025Z,26.33
2023-03-18T14:31:52.520Z,26.33
2023-03-18T14:34:29.627Z,25.22
2023-03-18T14:37:30.840Z,25.14
2023-03-18T14:40:13.326Z,24.73
2023-03-18T14:42:52.232Z,25.34
2023-03-18T14:45:32.896Z,25.73
2023-03-18T14:48:14.486Z,26.53
2023-03-18T14:50:46.841Z,26.53
2023-03-18T14:53:22.887Z,26.86
2023-03-18T14:55:55.893Z,26.45
2023-03-18T14:58:31.826Z,26.85
2023-03-18T15:01:08.814Z,25.64
2023-03-18T15:03:49.260Z,25.57
2023-03-18T15:06:22.687Z,26.05
2023-03-18T15:08:55.275Z,25.93
2023-03-18T15:11:26.166Z,26.30
2023-03-18T15:14:00.329Z,26.43
2023-03-18T15:16:36.262Z,26.98
2023-03-18T15:19:07.600Z,27.00
2023-03-18T15:21:37.900Z,27.38
2023-03-18T15:24:09.281Z,27.46
2023-03-18T15:26:44.592Z,27.71
2023-03-18T15:29:30.955Z,27.91
2023-03-18T15:34:57.632Z,28.78
2023-03-18T15:40:30.719Z,28.92
2023-03-18T15:43:24.040Z,29.33
2023-03-18T15:46:01.522Z,29.76
2023-03-18T15:48:35.692Z,29.59
2023-03-18T15:51:11.075Z,30.11
2023-03-18T15:53:47.505Z,30.84
2023-03-18T15:56:20.476Z,30.98
2023-03-18T15:59:00.310Z,30.98
2023-03-18T16:01:29.507Z,31.41
2023-03-18T16:04:04.500Z,32.06
2023-03-18T16:06:38.038Z,32.00
2023-03-18T16:09:17.370Z,32.13
2023-03-18T16:11:48.030Z,32.06
2023-03-18T16:14:24.706Z,32.25
2023-03-18T16:16:54.419Z,31.85
2023-03-18T16:19:27.583Z,32.42
2023-03-18T16:22:00.547Z,32.44
2023-03-18T16:24:44.129Z,32.40
2023-03-18T16:27:29.467Z,33.22
2023-03-18T16:29:58.960Z,33.05
2023-03-18T16:32:33.270Z,33.06
2023-03-18T16:35:03.205Z,32.88
2023-03-18T16:37:35.629Z,33.33
2023-03-18T16:42:47.534Z,34.38
2023-03-18T16:45:18.422Z,34.40
2023-03-18T16:47:56.573Z,34.91
2023-03-18T16:50:29.858Z,34.68
2023-03-18T16:53:02.083Z,34.80
2023-03-18T16:55:32.333Z,35.30
2023-03-18T16:58:13.516Z,35.72
2023-03-18T17:00:46.508Z,35.61
2023-03-18T17:03:28.984Z,36.23
2023-03-18T17:05:59.765Z,36.33
2023-03-18T17:11:17.825Z,36.79
2023-03-18T17:13:52.185Z,37.15
2023-03-18T17:16:21.890Z,37.77
2023-03-18T17:18:51.005Z,38.39
2023-03-18T17:21:31.530Z,39.75
2023-03-18T17:24:02.674Z,39.18
2023-03-18T17:26:32.020Z,39.16
2023-03-18T17:29:01.169Z,39.26
2023-03-18T17:31:37.294Z,39.96
2023-03-18T17:34:15.308Z,40.92
2023-03-18T17:36:44.585Z,41.20
2023-03-18T17:39:16.106Z,42.07
2023-03-18T17:41:51.398Z,41.13
2023-03-18T17:44:32.435Z,41.72
2023-03-18T17:47:01.713Z,41.79
2023-03-18T17:49:31.036Z,42.26
2023-03-18T17:52:00.414Z,42.21
2023-03-18T17:54:32.659Z,43.01
2023-03-18T17:57:02.962Z,44.31
2023-03-18T17:59:32.808Z,43.87
2023-03-18T18:02:04.643Z,44.01
2023-03-18T18:07:18.639Z,43.73
2023-03-18T18:09:58.408Z,44.00
2023-03-18T18:12:32.518Z,44.18
2023-03-18T18:15:01.801Z,44.37
2023-03-18T18:17:32.414Z,44.32
2023-03-18T18:20:01.643Z,45.53
2023-03-18T18:22:32.079Z,45.52
2023-03-18T18:25:08.310Z,45.82
2023-03-18T18:27:37.948Z,45.81
2023-03-18T18:30:08.347Z,46.19
2023-03-18T18:32:37.621Z,46.58
2023-03-18T18:35:08.798Z,46.94
2023-03-18T18:37:43.482Z,47.00
2023-03-18T18:40:17.587Z,47.79
2023-03-18T18:42:47.336Z,47.03
2023-03-18T18:45:20.575Z,47.82
2023-03-18T18:47:49.731Z,47.38
2023-03-18T18:52:56.865Z,47.69
2023-03-18T18:55:28.244Z,49.04
2023-03-18T18:57:58.103Z,48.62
2023-03-18T19:00:28.112Z,48.74
2023-03-18T19:03:08.880Z,48.46
2023-03-18T19:05:43.258Z,49.15
2023-03-18T19:08:27.248Z,49.45
2023-03-18T19:10:59.599Z,50.36
2023-03-18T19:13:35.746Z,49.85
2023-03-18T19:16:07.981Z,50.21
2023-03-18T19:18:40.749Z,50.73
2023-03-18T19:21:09.872Z,49.69
2023-03-18T19:23:39.020Z,50.03
2023-03-18T19:26:13.493Z,51.28
2023-03-18T19:28:58.948Z,51.37
2023-03-18T19:31:34.533Z,50.86
2023-03-18T19:34:04.488Z,51.40
2023-03-18T19:36:39.362Z,51.66
2023-03-18T19:39:16.027Z,52.14
2023-03-18T19:41:53.881Z,52.75
2023-03-18T19:44:25.167Z,52.61
2023-03-18T19:46:55.937Z,52.88
2023-03-18T19:49:27.544Z,52.47
2023-03-18T19:52:02.245Z,52.29
2023-03-18T19:54:33.148Z,53.57
2023-03-18T19:57:11.928Z,53.67
2023-03-18T19:59:41.494Z,53.61
2023-03-18T20:02:29.233Z,54.71
2023-03-18T20:05:06.154Z,53.14
2023-03-18T20:07:35.342Z,53.74
2023-03-18T20:10:04.410Z,53.45
2023-03-18T20:12:38.093Z,53.14
2023-03-18T20:15:09.570Z,53.26
2023-03-18T20:17:41.059Z,53.39
2023-03-18T20:20:15.987Z,53.74
2023-03-18T20:23:01.488Z,53.51
2023-03-18T20:25:36.195Z,53.51
2023-03-18T20:28:08.858Z,53.65
2023-03-18T20:30:40.421Z,53.02
2023-03-18T20:35:56.199Z,52.75
2023-03-18T20:38:30.195Z,53.26
2023-03-18T20:40:59.549Z,52.91
2023-03-18T20:46:07.300Z,53.03
2023-03-18T20:48:37.667Z,53.09
2023-03-18T20:51:17.019Z,52.95
2023-03-18T20:53:46.175Z,53.08
2023-03-18T20:56:22.511Z,53.04
2023-03-18T20:58:53.642Z,54.07
2023-03-18T21:01:22.740Z,53.68
2023-03-18T21:03:52.056Z,53.70
2023-03-18T21:06:21.554Z,54.31
2023-03-18T21:08:50.741Z,53.27
2023-03-18T21:11:23.714Z,53.90
2023-03-18T21:13:55.237Z,53.38
2023-03-18T21:16:30.982Z,53.82
2023-03-18T21:21:38.514Z,53.67
2023-03-18T21:24:25.329Z,53.89
2023-03-18T21:27:04.107Z,53.50
2023-03-18T21:32:21.010Z,53.60
2023-03-18T21:34:50.710Z,53.30
2023-03-18T21:37:21.740Z,54.08
2023-03-18T21:39:52.286Z,53.20
2023-03-18T21:42:25.417Z,53.60
2023-03-18T21:45:03.019Z,52.75
2023-03-18T21:47:32.292Z,52.60
2023-03-18T21:50:01.304Z,52.37
2023-03-18T21:52:33.578Z,52.84
2023-03-18T21:55:02.978Z,53.42
2023-03-18T21:57:32.771Z,53.23
2023-03-18T22:00:03.939Z,53.98
2023-03-18T22:02:39.985Z,53.40
2023-03-18T22:05:13.998Z,53.77
2023-03-18T22:07:43.209Z,53.51
2023-03-18T22:10:17.710Z,53.68
2023-03-18T22:12:47.346Z,53.15
2023-03-18T22:15:42.460Z,53.26
2023-03-18T22:18:17.947Z,53.18
2023-03-18T22:20:48.709Z,53.03
2023-03-18T22:23:20.529Z,53.42
2023-03-18T22:25:51.523Z,53.97
2023-03-18T22:28:22.466Z,53.91
2023-03-18T22:30:56.803Z,53.20
2023-03-18T22:33:29.995Z,53.44
2023-03-18T22:38:40.724Z,53.81
2023-03-18T22:41:20.043Z,53.97
2023-03-18T22:43:51.166Z,54.16
2023-03-18T22:46:22.417Z,54.52
2023-03-18T22:48:52.062Z,53.75
2023-03-18T22:54:00.618Z,54.06
2023-03-18T22:56:31.739Z,54.33
2023-03-18T22:59:02.617Z,54.51
2023-03-18T23:01:33.834Z,54.47
2023-03-18T23:04:08.331Z,54.08
2023-03-18T23:06:37.479Z,53.79
2023-03-18T23:09:16.841Z,53.87
2023-03-18T23:11:46.188Z,54.38
2023-03-18T23:14:15.206Z,54.14
2023-03-18T23:16:46.839Z,54.51
2023-03-18T23:19:16.017Z,54.15
2023-03-18T23:21:45.189Z,54.31
2023-03-18T23:24:19.332Z,54.47
2023-03-18T23:26:51.110Z,54.49
2023-03-18T23:29:20.355Z,54.90
2023-03-18T23:31:56.656Z,55.21
2023-03-18T23:34:26.004Z,55.08
2023-03-18T23:36:55.238Z,55.28
2023-03-18T23:39:24.890Z,55.50
2023-03-18T23:41:54.265Z,55.74
2023-03-18T23:44:25.804Z,56.02
2023-03-18T23:46:56.996Z,56.58
2023-03-18T23:49:31.760Z,56.25
2023-03-18T23:52:05.902Z,56.35
2023-03-18T23:54:35.805Z,56.46
2023-03-18T23:57:05.720Z,56.52
2023-03-18T23:59:35.460Z,56.58
